createdAt,value
2023-04-08T00:00:02.299Z,18.54
2023-04-08T00:02:29.227Z,19.18
2023-04-08T00:04:55.988Z,18.94
2023-04-08T00:07:22.577Z,18.99
2023-04-08T00:09:49.522Z,19.24
2023-04-08T00:12:16.678Z,18.52
2023-04-08T00:14:43.244Z,18.83
2023-04-08T00:17:09.929Z,16.85
2023-04-08T00:19:36.547Z,16.42
2023-04-08T00:22:03.332Z,16.66
2023-04-08T00:24:29.892Z,16.70
2023-04-08T00:26:56.617Z,17.20
2023-04-08T00:29:23.204Z,16.70
2023-04-08T00:31:49.704Z,17.42
2023-04-08T00:34:16.342Z,17.69
2023-04-08T00:36:42.879Z,17.64
2023-04-08T00:39:09.453Z,17.36
2023-04-08T00:41:36.150Z,16.90
2023-04-08T00:44:02.744Z,18.44
2023-04-08T00:46:30.918Z,18.77
2023-04-08T00:48:59.888Z,17.65
2023-04-08T00:51:26.449Z,17.56
2023-04-08T00:53:53.006Z,17.28
2023-04-08T00:56:19.613Z,17.42
2023-04-08T00:58:46.180Z,18.61
2023-04-08T01:01:23.555Z,18.14
2023-04-08T01:04:17.267Z,17.17
2023-04-08T01:06:56.283Z,16.55
2023-04-08T01:09:27.926Z,16.78
2023-04-08T01:11:59.448Z,17.38
2023-04-08T01:14:28.929Z,15.91
2023-04-08T01:16:58.866Z,16.26
2023-04-08T01:19:35.796Z,15.86
2023-04-08T01:22:15.402Z,16.59
2023-04-08T01:24:45.597Z,15.85
2023-04-08T01:27:14.370Z,14.72
2023-04-08T01:29:44.140Z,13.80
2023-04-08T01:32:13.486Z,13.88
2023-04-08T01:34:41.653Z,13.61
2023-04-08T01:37:08.782Z,13.98
2023-04-08T01:39:39.400Z,14.42
2023-04-08T01:42:06.158Z,13.43
2023-04-08T01:44:35.902Z,13.50
2023-04-08T01:47:03.945Z,13.86
2023-04-08T01:49:31.469Z,12.82
2023-04-08T01:52:00.582Z,13.40
2023-04-08T01:54:27.139Z,13.00
2023-04-08T01:56:57.185Z,13.60
2023-04-08T01:59:29.826Z,13.25
2023-04-08T02:01:57.454Z,12.98
2023-04-08T02:04:24.158Z,13.28
2023-04-08T02:06:50.908Z,13.10
2023-04-08T02:09:17.448Z,13.61
2023-04-08T02:11:44.008Z,13.42
2023-04-08T02:14:10.943Z,13.77
2023-04-08T02:16:49.900Z,14.41
2023-04-08T02:19:25.574Z,14.28
2023-04-08T02:22:18.387Z,14.11
2023-04-08T02:24:47.327Z,13.29
2023-04-08T02:27:14.066Z,14.44
2023-04-08T02:29:42.827Z,15.29
2023-04-08T02:32:12.135Z,14.67
2023-04-08T02:34:41.669Z,14.05
2023-04-08T02:37:09.292Z,13.18
2023-04-08T02:39:36.008Z,13.82
2023-04-08T02:42:04.298Z,13.72
2023-04-08T02:44:31.318Z,13.68
2023-04-08T02:46:57.886Z,13.89
2023-04-08T02:49:24.441Z,13.95
2023-04-08T02:51:51.251Z,14.30
2023-04-08T02:54:17.753Z,14.21
2023-04-08T02:56:44.263Z,14.10
2023-04-08T02:59:10.873Z,13.94
2023-04-08T03:01:37.518Z,14.52
2023-04-08T03:04:04.366Z,14.56
2023-04-08T03:06:32.129Z,14.55
2023-04-08T03:08:58.759Z,15.76
2023-04-08T03:11:26.045Z,16.29
2023-04-08T03:13:52.618Z,16.87
2023-04-08T03:16:19.340Z,17.43
2023-04-08T03:18:49.424Z,18.25
2023-04-08T03:21:16.821Z,18.59
2023-04-08T03:23:44.298Z,18.63
2023-04-08T03:26:11.789Z,18.44
2023-04-08T03:28:38.364Z,18.76
2023-04-08T03:31:05.378Z,18.81
2023-04-08T03:33:32.383Z,19.29
2023-04-08T03:35:59.030Z,20.12
2023-04-08T03:38:25.647Z,21.91
2023-04-08T03:40:52.155Z,22.67
2023-04-08T03:43:21.827Z,22.17
2023-04-08T03:45:48.453Z,22.48
2023-04-08T03:48:15.087Z,23.53
2023-04-08T03:50:41.642Z,22.67
2023-04-08T03:53:11.154Z,22.57
2023-04-08T03:55:37.769Z,23.08
2023-04-08T03:58:04.411Z,22.11
2023-04-08T04:00:31.117Z,21.92
2023-04-08T04:02:57.755Z,20.20
2023-04-08T04:05:24.337Z,20.81
2023-04-08T04:07:50.943Z,20.48
2023-04-08T04:10:17.468Z,21.19
2023-04-08T04:12:44.888Z,21.15
2023-04-08T04:15:11.896Z,20.65
2023-04-08T04:17:38.419Z,20.64
2023-04-08T04:20:06.420Z,19.33
2023-04-08T04:22:32.963Z,19.78
2023-04-08T04:24:59.475Z,20.07
2023-04-08T04:27:26.038Z,19.58
2023-04-08T04:29:52.559Z,20.00
2023-04-08T04:32:19.514Z,19.95
2023-04-08T04:34:46.264Z,19.55
2023-04-08T04:37:13.645Z,19.29
2023-04-08T04:39:41.211Z,19.30
2023-04-08T04:42:07.737Z,19.14
2023-04-08T04:44:34.480Z,18.88
2023-04-08T04:47:01.008Z,19.16
2023-04-08T04:49:27.571Z,19.43
2023-04-08T04:51:54.112Z,18.24
2023-04-08T04:54:20.780Z,18.59
2023-04-08T04:56:47.296Z,18.79
2023-04-08T04:59:13.854Z,17.76
2023-04-08T05:01:41.145Z,18.26
2023-04-08T05:04:08.013Z,18.66
2023-04-08T05:06:34.889Z,18.67
2023-04-08T05:09:01.585Z,18.29
2023-04-08T05:11:28.083Z,17.52
2023-04-08T05:13:54.639Z,17.65
2023-04-08T05:16:21.218Z,17.70
2023-04-08T05:18:47.971Z,18.00
2023-04-08T05:21:14.600Z,18.44
2023-04-08T05:23:41.336Z,17.85
2023-04-08T05:26:08.859Z,18.47
2023-04-08T05:28:35.938Z,18.43
2023-04-08T05:31:02.465Z,17.51
2023-04-08T05:33:28.977Z,17.44
2023-04-08T05:35:55.527Z,17.31
2023-04-08T05:38:22.196Z,17.29
2023-04-08T05:40:48.735Z,17.21
2023-04-08T05:43:15.390Z,16.56
2023-04-08T05:45:41.917Z,15.86
2023-04-08T05:48:08.457Z,16.07
2023-04-08T05:50:36.260Z,15.76
2023-04-08T05:53:02.989Z,16.02
2023-04-08T05:55:29.608Z,16.98
2023-04-08T05:57:56.123Z,16.89
2023-04-08T06:00:25.268Z,16.95
2023-04-08T06:02:52.213Z,16.59
2023-04-08T06:05:19.147Z,16.20
2023-04-08T06:07:46.146Z,16.83
2023-04-08T06:10:12.746Z,17.65
2023-04-08T06:12:39.453Z,16.74
2023-04-08T06:15:07.774Z,16.98
2023-04-08T06:17:38.466Z,17.07
2023-04-08T06:20:06.607Z,16.35
2023-04-08T06:22:33.107Z,17.13
2023-04-08T06:24:59.715Z,17.93
2023-04-08T06:27:26.376Z,17.84
2023-04-08T06:29:53.321Z,17.33
2023-04-08T06:32:20.016Z,17.68
2023-04-08T06:34:46.614Z,18.42
2023-04-08T06:37:13.433Z,17.72
2023-04-08T06:39:39.981Z,18.45
2023-04-08T06:42:06.728Z,18.51
2023-04-08T06:44:33.318Z,19.45
2023-04-08T06:47:00.216Z,19.04
2023-04-08T06:49:27.384Z,18.48
2023-04-08T06:51:54.135Z,18.96
2023-04-08T06:54:20.639Z,19.92
2023-04-08T06:56:47.540Z,20.86
2023-04-08T06:59:14.130Z,20.61
2023-04-08T07:01:41.694Z,20.80
2023-04-08T07:04:08.326Z,20.49
2023-04-08T07:06:34.825Z,20.54
2023-04-08T07:09:01.366Z,20.08
2023-04-08T07:11:27.968Z,19.54
2023-04-08T07:13:54.488Z,19.93
2023-04-08T07:16:21.129Z,19.96
2023-04-08T07:18:47.880Z,19.23
2023-04-08T07:21:14.548Z,19.14
2023-04-08T07:23:41.132Z,19.19
2023-04-08T07:26:07.760Z,18.62
2023-04-08T07:28:34.303Z,18.60
2023-04-08T07:31:16.061Z,17.08
2023-04-08T07:33:43.917Z,16.56
2023-04-08T07:36:11.902Z,15.83
2023-04-08T07:38:41.251Z,17.37
2023-04-08T07:41:08.052Z,16.23
2023-04-08T07:43:36.313Z,16.29
2023-04-08T07:46:06.973Z,16.05
2023-04-08T07:48:35.169Z,16.00
2023-04-08T07:51:10.660Z,15.77
2023-04-08T07:53:39.571Z,14.98
2023-04-08T07:56:16.353Z,15.21
2023-04-08T07:58:44.841Z,15.38
2023-04-08T08:01:22.450Z,15.28
2023-04-08T08:03:52.186Z,17.08
2023-04-08T08:06:19.338Z,15.66
2023-04-08T08:08:46.223Z,15.17
2023-04-08T08:11:13.070Z,15.28
2023-04-08T08:13:39.669Z,15.39
2023-04-08T08:16:08.980Z,14.65
2023-04-08T08:18:36.364Z,14.98
2023-04-08T08:21:03.344Z,15.13
2023-04-08T08:23:29.944Z,14.75
2023-04-08T08:26:03.550Z,14.62
2023-04-08T08:28:30.216Z,14.73
2023-04-08T08:30:57.177Z,14.99
2023-04-08T08:33:24.734Z,14.96
2023-04-08T08:35:52.220Z,15.16
2023-04-08T08:38:18.801Z,15.14
2023-04-08T08:40:45.778Z,15.35
2023-04-08T08:43:12.448Z,15.54
2023-04-08T08:45:40.937Z,15.28
2023-04-08T08:48:11.257Z,15.42
2023-04-08T08:50:38.090Z,15.06
2023-04-08T08:53:04.669Z,14.95
2023-04-08T08:55:50.894Z,14.21
2023-04-08T08:58:20.391Z,14.47
2023-04-08T09:00:47.016Z,14.96
2023-04-08T09:03:30.052Z,14.21
2023-04-08T09:06:01.735Z,14.17
2023-04-08T09:08:33.980Z,14.45
2023-04-08T09:11:18.637Z,14.20
2023-04-08T09:13:46.534Z,14.80
2023-04-08T09:16:18.566Z,15.12
2023-04-08T09:18:47.233Z,15.65
2023-04-08T09:21:16.778Z,15.76
2023-04-08T09:23:50.623Z,15.32
2023-04-08T09:26:24.129Z,16.07
2023-04-08T09:29:18.428Z,15.47
2023-04-08T09:31:56.736Z,15.99
2023-04-08T09:34:24.525Z,16.13
2023-04-08T09:36:52.158Z,16.20
2023-04-08T09:39:19.260Z,16.08
2023-04-08T09:41:49.516Z,16.38
2023-04-08T09:44:18.446Z,17.02
2023-04-08T09:46:50.835Z,17.65
2023-04-08T09:49:38.224Z,17.05
2023-04-08T09:52:10.586Z,17.15
2023-04-08T09:55:03.773Z,17.18
2023-04-08T09:57:55.656Z,16.33
2023-04-08T10:00:31.385Z,15.77
2023-04-08T10:03:19.367Z,14.84
2023-04-08T10:05:47.339Z,15.33
2023-04-08T10:08:15.893Z,15.45
2023-04-08T10:10:43.677Z,14.96
2023-04-08T10:13:10.443Z,14.77
2023-04-08T10:15:38.302Z,14.41
2023-04-08T10:18:05.461Z,14.74
2023-04-08T10:20:35.556Z,14.09
2023-04-08T10:23:14.268Z,14.58
2023-04-08T10:25:45.918Z,13.78
2023-04-08T10:28:17.526Z,13.85
2023-04-08T10:30:51.073Z,13.85
2023-04-08T10:33:40.708Z,14.32
2023-04-08T10:36:09.596Z,14.16
2023-04-08T10:38:36.156Z,14.16
2023-04-08T10:41:02.704Z,13.78
2023-04-08T10:43:33.899Z,13.84
2023-04-08T10:46:01.439Z,13.39
2023-04-08T10:48:30.693Z,13.32
2023-04-08T10:51:04.863Z,14.19
2023-04-08T10:53:33.953Z,14.40
2023-04-08T10:56:07.995Z,14.27
2023-04-08T10:58:36.502Z,14.26
2023-04-08T11:01:07.867Z,14.46
2023-04-08T11:03:37.225Z,13.72
2023-04-08T11:06:05.154Z,14.60
2023-04-08T11:08:34.394Z,13.83
2023-04-08T11:11:06.762Z,13.76
2023-04-08T11:13:33.546Z,13.74
2023-04-08T11:16:01.121Z,13.59
2023-04-08T11:18:28.627Z,13.52
2023-04-08T11:20:58.341Z,13.03
2023-04-08T11:23:27.378Z,13.68
2023-04-08T11:25:54.450Z,13.01
2023-04-08T11:28:22.178Z,12.26
2023-04-08T11:30:49.590Z,12.61
2023-04-08T11:33:16.653Z,12.47
2023-04-08T11:35:44.329Z,12.40
2023-04-08T11:38:12.810Z,12.27
2023-04-08T11:40:39.502Z,12.77
2023-04-08T11:43:13.049Z,12.13
2023-04-08T11:45:40.929Z,12.94
2023-04-08T11:48:15.489Z,12.87
2023-04-08T11:50:43.977Z,13.26
2023-04-08T11:53:19.784Z,12.59
2023-04-08T11:55:47.474Z,11.95
2023-04-08T11:58:15.025Z,11.29
2023-04-08T12:00:42.775Z,11.87
2023-04-08T12:03:10.703Z,11.24
2023-04-08T12:05:37.389Z,10.18
2023-04-08T12:08:04.289Z,10.20
2023-04-08T12:10:31.171Z,10.42
2023-04-08T12:12:57.652Z,10.28
2023-04-08T12:15:25.423Z,9.46
2023-04-08T12:17:52.001Z,8.60
2023-04-08T12:20:18.592Z,8.70
2023-04-08T12:22:45.422Z,8.98
2023-04-08T12:25:12.299Z,8.90
2023-04-08T12:27:38.806Z,8.56
2023-04-08T12:30:05.818Z,7.99
2023-04-08T12:32:32.415Z,8.96
2023-04-08T12:34:58.932Z,8.88
2023-04-08T12:37:25.453Z,9.05
2023-04-08T12:39:53.547Z,8.95
2023-04-08T12:42:20.113Z,9.14
2023-04-08T12:44:46.603Z,9.63
2023-04-08T12:47:13.269Z,9.65
2023-04-08T12:52:09.397Z,9.06
2023-04-08T12:54:36.039Z,8.46
2023-04-08T12:57:02.794Z,5.85
2023-04-08T12:59:29.364Z,6.71
2023-04-08T13:01:56.091Z,8.09
2023-04-08T13:04:22.649Z,9.47
2023-04-08T13:06:49.184Z,8.82
2023-04-08T13:09:15.842Z,10.49
2023-04-08T13:11:42.636Z,11.07
2023-04-08T13:14:09.152Z,12.13
2023-04-08T13:16:35.719Z,12.46
2023-04-08T13:19:02.266Z,13.46
2023-04-08T13:21:28.792Z,12.75
2023-04-08T13:23:55.410Z,13.04
2023-04-08T13:26:22.155Z,13.20
2023-04-08T13:29:00.664Z,13.73
2023-04-08T13:31:27.737Z,12.81
2023-04-08T13:33:57.687Z,13.33
2023-04-08T13:36:24.601Z,12.61
2023-04-08T13:38:51.879Z,12.63
2023-04-08T13:41:21.111Z,12.44
2023-04-08T13:43:47.710Z,12.14
2023-04-08T13:46:14.396Z,12.56
2023-04-08T13:48:41.253Z,11.91
2023-04-08T13:51:08.332Z,12.15
2023-04-08T13:53:34.807Z,11.68
2023-04-08T13:56:01.378Z,12.11
2023-04-08T13:58:28.358Z,12.27
2023-04-08T14:00:55.073Z,11.79
2023-04-08T14:03:22.340Z,11.12
2023-04-08T14:05:50.816Z,11.26
2023-04-08T14:08:18.490Z,11.29
2023-04-08T14:10:45.035Z,11.50
2023-04-08T14:13:11.561Z,11.40
2023-04-08T14:15:38.141Z,12.12
2023-04-08T14:18:04.743Z,11.69
2023-04-08T14:20:31.789Z,11.13
2023-04-08T14:22:58.419Z,11.52
2023-04-08T14:25:25.731Z,11.45
2023-04-08T14:27:58.421Z,10.57
2023-04-08T14:30:26.814Z,10.29
2023-04-08T14:32:53.965Z,10.46
2023-04-08T14:35:20.715Z,10.94
2023-04-08T14:37:47.266Z,10.32
2023-04-08T14:40:13.863Z,10.13
2023-04-08T14:42:40.685Z,10.10
2023-04-08T14:45:07.781Z,10.11
2023-04-08T14:47:34.472Z,10.93
2023-04-08T14:50:01.029Z,11.42
2023-04-08T14:52:27.725Z,11.27
2023-04-08T14:54:54.280Z,11.76
2023-04-08T14:57:20.909Z,12.60
2023-04-08T14:59:47.555Z,12.02
2023-04-08T15:02:14.334Z,12.49
2023-04-08T15:04:41.236Z,12.15
2023-04-08T15:07:08.134Z,13.01
2023-04-08T15:09:34.742Z,13.27
2023-04-08T15:12:01.772Z,12.51
2023-04-08T15:14:28.467Z,12.73
2023-04-08T15:16:55.429Z,12.80
2023-04-08T15:19:22.023Z,12.07
2023-04-08T15:21:48.524Z,12.71
2023-04-08T15:24:15.294Z,13.37
2023-04-08T15:26:42.349Z,12.87
2023-04-08T15:29:09.076Z,12.86
2023-04-08T15:31:35.909Z,12.68
2023-04-08T15:34:03.578Z,12.58
2023-04-08T15:36:30.809Z,12.90
2023-04-08T15:38:57.366Z,12.90
2023-04-08T15:41:23.865Z,12.03
2023-04-08T15:43:51.941Z,11.30
2023-04-08T15:46:20.385Z,10.83
2023-04-08T15:48:47.685Z,12.02
2023-04-08T15:51:14.296Z,12.31
2023-04-08T15:53:41.532Z,11.66
2023-04-08T15:56:18.017Z,12.24
2023-04-08T15:58:45.992Z,11.88
2023-04-08T16:01:13.270Z,12.05
2023-04-08T16:03:39.869Z,11.55
2023-04-08T16:06:07.350Z,11.93
2023-04-08T16:08:34.772Z,12.02
2023-04-08T16:11:03.872Z,14.54
2023-04-08T16:13:31.120Z,15.51
2023-04-08T16:15:58.729Z,14.78
2023-04-08T16:18:25.916Z,13.55
2023-04-08T16:20:53.088Z,14.69
2023-04-08T16:23:20.031Z,15.43
2023-04-08T16:25:47.421Z,15.21
2023-04-08T16:28:14.246Z,14.32
2023-04-08T16:30:44.249Z,15.30
2023-04-08T16:33:13.838Z,14.83
2023-04-08T16:35:40.453Z,16.78
2023-04-08T16:38:07.081Z,17.35
2023-04-08T16:40:34.594Z,18.38
2023-04-08T16:43:02.540Z,19.37
2023-04-08T16:45:30.170Z,19.29
2023-04-08T16:47:57.499Z,18.83
2023-04-08T16:50:24.728Z,19.97
2023-04-08T16:52:51.725Z,20.85
2023-04-08T16:55:19.520Z,20.88
2023-04-08T16:57:46.596Z,21.02
2023-04-08T17:00:13.548Z,21.96
2023-04-08T17:02:40.470Z,22.27
2023-04-08T17:05:07.632Z,22.47
2023-04-08T17:07:34.557Z,22.83
2023-04-08T17:10:01.105Z,23.08
2023-04-08T17:12:27.759Z,22.90
2023-04-08T17:14:55.382Z,22.26
2023-04-08T17:17:21.922Z,21.86
2023-04-08T17:19:48.557Z,23.03
2023-04-08T17:22:15.201Z,22.19
2023-04-08T17:24:44.440Z,22.01
2023-04-08T17:27:12.517Z,22.62
2023-04-08T17:29:39.100Z,23.80
2023-04-08T17:32:05.761Z,23.80
2023-04-08T17:34:33.702Z,24.07
2023-04-08T17:37:00.252Z,23.05
2023-04-08T17:39:27.883Z,22.18
2023-04-08T17:41:54.474Z,22.51
2023-04-08T17:44:21.644Z,22.40
2023-04-08T17:46:49.519Z,21.51
2023-04-08T17:49:16.596Z,22.69
2023-04-08T17:51:43.092Z,21.62
2023-04-08T17:54:09.630Z,20.76
2023-04-08T17:56:36.183Z,21.63
2023-04-08T17:59:02.814Z,21.49
2023-04-08T18:01:29.546Z,21.29
2023-04-08T18:03:56.314Z,20.81
2023-04-08T18:06:23.021Z,20.92
2023-04-08T18:08:49.662Z,21.89
2023-04-08T18:11:16.228Z,20.47
2023-04-08T18:13:42.794Z,21.99
2023-04-08T18:16:20.783Z,21.98
2023-04-08T18:18:48.283Z,22.44
2023-04-08T18:21:18.046Z,21.21
2023-04-08T18:23:48.862Z,21.75
2023-04-08T18:26:15.576Z,22.57
2023-04-08T18:28:42.190Z,21.63
2023-04-08T18:31:08.864Z,21.84
2023-04-08T18:33:35.621Z,22.33
2023-04-08T18:36:10.215Z,21.44
2023-04-08T18:38:36.921Z,20.94
2023-04-08T18:41:04.467Z,21.47
2023-04-08T18:43:33.685Z,21.48
2023-04-08T18:46:00.457Z,21.55
2023-04-08T18:48:27.388Z,21.76
2023-04-08T18:50:54.811Z,21.05
2023-04-08T18:53:21.973Z,21.16
2023-04-08T18:55:48.556Z,21.41
2023-04-08T18:58:15.179Z,22.50
2023-04-08T19:00:42.003Z,21.16
2023-04-08T19:03:10.229Z,20.88
2023-04-08T19:05:37.667Z,21.11
2023-04-08T19:08:05.431Z,21.75
2023-04-08T19:10:34.053Z,21.21
2023-04-08T19:13:01.663Z,20.99
2023-04-08T19:15:28.952Z,21.66
2023-04-08T19:17:56.446Z,23.61
2023-04-08T19:20:23.333Z,23.90
2023-04-08T19:22:50.344Z,24.04
2023-04-08T19:25:17.371Z,22.68
2023-04-08T19:27:46.051Z,22.89
2023-04-08T19:30:13.375Z,22.47
2023-04-08T19:32:40.119Z,22.39
2023-04-08T19:35:07.370Z,21.50
2023-04-08T19:37:34.081Z,22.91
2023-04-08T19:40:00.661Z,22.86
2023-04-08T19:42:27.253Z,22.89
2023-04-08T19:44:53.849Z,23.38
2023-04-08T19:47:20.442Z,23.47
2023-04-08T19:49:47.013Z,24.22
2023-04-08T19:52:13.577Z,22.73
2023-04-08T19:54:41.327Z,22.84
2023-04-08T19:57:09.244Z,23.31
2023-04-08T19:59:35.776Z,22.90
2023-04-08T20:02:05.521Z,22.27
2023-04-08T20:04:32.654Z,23.20
2023-04-08T20:07:02.529Z,22.66
2023-04-08T20:09:32.605Z,21.90
2023-04-08T20:12:06.327Z,22.24
2023-04-08T20:14:35.393Z,22.50
2023-04-08T20:17:02.345Z,22.71
2023-04-08T20:19:28.838Z,22.73
2023-04-08T20:21:56.128Z,22.58
2023-04-08T20:24:23.230Z,22.71
2023-04-08T20:26:50.039Z,23.23
2023-04-08T20:29:16.650Z,22.30
2023-04-08T20:31:44.629Z,21.97
2023-04-08T20:34:11.645Z,23.36
2023-04-08T20:36:39.873Z,23.55
2023-04-08T20:39:10.713Z,25.20
2023-04-08T20:41:37.587Z,25.45
2023-04-08T20:44:06.068Z,25.04
2023-04-08T20:46:32.872Z,24.98
2023-04-08T20:48:59.495Z,25.76
2023-04-08T20:51:27.172Z,25.74
2023-04-08T20:53:53.730Z,25.49
2023-04-08T20:56:20.965Z,25.81
2023-04-08T20:58:47.586Z,25.90
2023-04-08T21:01:14.168Z,25.14
2023-04-08T21:03:40.952Z,26.09
2023-04-08T21:06:07.687Z,25.69
2023-04-08T21:08:34.258Z,24.03
2023-04-08T21:11:00.796Z,23.29
2023-04-08T21:13:27.324Z,24.26
2023-04-08T21:15:53.879Z,22.70
2023-04-08T21:18:20.398Z,23.34
2023-04-08T21:20:47.025Z,23.02
2023-04-08T21:23:13.675Z,22.08
2023-04-08T21:25:40.351Z,22.05
2023-04-08T21:28:06.894Z,22.12
2023-04-08T21:30:33.445Z,22.71
2023-04-08T21:33:00.163Z,23.14
2023-04-08T21:35:26.753Z,23.60
2023-04-08T21:37:53.322Z,24.40
2023-04-08T21:40:19.890Z,24.49
2023-04-08T21:42:46.506Z,24.76
2023-04-08T21:45:13.274Z,24.33
2023-04-08T21:47:39.908Z,24.59
2023-04-08T21:50:07.759Z,24.88
2023-04-08T21:52:34.365Z,25.16
2023-04-08T21:55:00.938Z,24.98
2023-04-08T21:57:27.982Z,24.31
2023-04-08T21:59:54.517Z,25.05
2023-04-08T22:02:21.398Z,24.35
2023-04-08T22:04:48.914Z,24.97
2023-04-08T22:07:16.017Z,25.20
2023-04-08T22:09:42.643Z,26.98
2023-04-08T22:12:10.049Z,28.25
2023-04-08T22:14:37.070Z,28.25
2023-04-08T22:17:04.654Z,29.29
2023-04-08T22:19:31.353Z,29.42
2023-04-08T22:21:57.909Z,29.26
2023-04-08T22:24:24.497Z,28.69
2023-04-08T22:26:53.016Z,28.70
2023-04-08T22:29:19.554Z,30.50
2023-04-08T22:31:46.322Z,29.74
2023-04-08T22:34:12.887Z,29.16
2023-04-08T22:36:39.397Z,29.87
2023-04-08T22:39:06.186Z,31.24
2023-04-08T22:41:32.734Z,32.28
2023-04-08T22:43:59.244Z,33.50
2023-04-08T22:46:25.810Z,33.11
2023-04-08T22:48:52.569Z,32.24
2023-04-08T22:51:19.340Z,31.29
2023-04-08T22:53:46.012Z,31.57
2023-04-08T22:56:12.580Z,32.36
2023-04-08T22:58:39.081Z,33.37
2023-04-08T23:01:17.129Z,32.94
2023-04-08T23:03:44.452Z,32.60
2023-04-08T23:06:11.479Z,32.55
2023-04-08T23:08:38.827Z,32.60
2023-04-08T23:11:06.391Z,32.03
2023-04-08T23:13:33.052Z,32.95
2023-04-08T23:15:59.806Z,33.26
2023-04-08T23:18:26.392Z,33.45
2023-04-08T23:20:55.656Z,32.74
2023-04-08T23:23:26.149Z,33.13
2023-04-08T23:25:55.579Z,33.73
2023-04-08T23:28:22.838Z,33.83
2023-04-08T23:30:49.639Z,34.20
2023-04-08T23:33:16.349Z,33.17
2023-04-08T23:35:42.889Z,32.57
2023-04-08T23:38:09.518Z,32.78
2023-04-08T23:40:37.061Z,32.70
2023-04-08T23:43:03.594Z,33.36
2023-04-08T23:45:30.333Z,34.03
2023-04-08T23:47:56.935Z,32.87
2023-04-08T23:50:23.574Z,32.77
2023-04-08T23:52:50.185Z,33.35
2023-04-08T23:55:16.782Z,31.94
2023-04-08T23:57:46.212Z,32.76
